sensor_id;sensor_type;location;lat;lon;timestamp;P1;durP1;ratioP1;P2;durP2;ratioP2
12171;SDS011;6149;52.418;13.668;2023-07-09T00:02:14;5.87;;;4.83;;
12171;SDS011;6149;52.418;13.668;2023-07-09T00:04:41;8.43;;;4.53;;
12171;SDS011;6149;52.418;13.668;2023-07-09T00:07:11;5.30;;;4.80;;
12171;SDS011;6149;52.418;13.668;2023-07-09T00:09:44;6.77;;;4.73;;
12171;SDS011;6149;52.418;13.668;2023-07-09T00:12:14;5.33;;;4.67;;
12171;SDS011;6149;52.418;13.668;2023-07-09T00:14:42;5.70;;;4.50;;
12171;SDS011;6149;52.418;13.668;2023-07-09T00:17:10;7.03;;;4.77;;
12171;SDS011;6149;52.418;13.668;2023-07-09T00:19:45;6.23;;;5.07;;
12171;SDS011;6149;52.418;13.668;2023-07-09T00:22:13;6.47;;;4.70;;
12171;SDS011;6149;52.418;13.668;2023-07-09T00:24:42;5.47;;;4.83;;
12171;SDS011;6149;52.418;13.668;2023-07-09T00:27:10;5.87;;;4.87;;
12171;SDS011;6149;52.418;13.668;2023-07-09T00:29:37;5.67;;;4.80;;
12171;SDS011;6149;52.418;13.668;2023-07-09T00:32:07;6.00;;;4.70;;
12171;SDS011;6149;52.418;13.668;2023-07-09T00:34:40;5.63;;;4.73;;
12171;SDS011;6149;52.418;13.668;2023-07-09T00:37:09;6.10;;;4.83;;
12171;SDS011;6149;52.418;13.668;2023-07-09T00:39:37;5.80;;;5.20;;
12171;SDS011;6149;52.418;13.668;2023-07-09T00:42:05;6.67;;;4.57;;
12171;SDS011;6149;52.418;13.668;2023-07-09T00:44:40;5.27;;;4.77;;
12171;SDS011;6149;52.418;13.668;2023-07-09T00:47:14;8.30;;;5.13;;
12171;SDS011;6149;52.418;13.668;2023-07-09T00:50:08;6.23;;;4.97;;
12171;SDS011;6149;52.418;13.668;2023-07-09T00:52:42;6.37;;;5.13;;
12171;SDS011;6149;52.418;13.668;2023-07-09T00:55:17;7.13;;;4.73;;
12171;SDS011;6149;52.418;13.668;2023-07-09T00:57:53;5.80;;;4.60;;
12171;SDS011;6149;52.418;13.668;2023-07-09T01:00:25;6.37;;;4.80;;
12171;SDS011;6149;52.418;13.668;2023-07-09T01:03:00;5.10;;;4.50;;
12171;SDS011;6149;52.418;13.668;2023-07-09T01:05:30;6.27;;;5.20;;
12171;SDS011;6149;52.418;13.668;2023-07-09T01:07:57;5.60;;;5.00;;
12171;SDS011;6149;52.418;13.668;2023-07-09T01:10:24;7.10;;;5.00;;
12171;SDS011;6149;52.418;13.668;2023-07-09T01:12:50;5.40;;;4.80;;
12171;SDS011;6149;52.418;13.668;2023-07-09T01:15:17;6.23;;;4.97;;
12171;SDS011;6149;52.418;13.668;2023-07-09T01:17:43;6.07;;;5.13;;
12171;SDS011;6149;52.418;13.668;2023-07-09T01:20:14;6.23;;;5.17;;
12171;SDS011;6149;52.418;13.668;2023-07-09T01:22:47;6.67;;;5.23;;
12171;SDS011;6149;52.418;13.668;2023-07-09T01:25:15;8.13;;;5.60;;
12171;SDS011;6149;52.418;13.668;2023-07-09T01:27:43;5.70;;;5.03;;
12171;SDS011;6149;52.418;13.668;2023-07-09T01:30:13;6.03;;;5.40;;
12171;SDS011;6149;52.418;13.668;2023-07-09T01:32:47;6.57;;;5.27;;
12171;SDS011;6149;52.418;13.668;2023-07-09T01:35:15;6.97;;;5.83;;
12171;SDS011;6149;52.418;13.668;2023-07-09T01:37:44;7.30;;;5.70;;
12171;SDS011;6149;52.418;13.668;2023-07-09T01:40:15;7.17;;;5.70;;
12171;SDS011;6149;52.418;13.668;2023-07-09T01:42:44;7.07;;;5.80;;
12171;SDS011;6149;52.418;13.668;2023-07-09T01:45:11;6.37;;;5.70;;
12171;SDS011;6149;52.418;13.668;2023-07-09T01:47:40;7.73;;;5.60;;
12171;SDS011;6149;52.418;13.668;2023-07-09T01:50:07;7.37;;;5.80;;
12171;SDS011;6149;52.418;13.668;2023-07-09T01:52:35;7.17;;;5.83;;
12171;SDS011;6149;52.418;13.668;2023-07-09T01:55:04;7.23;;;5.43;;
12171;SDS011;6149;52.418;13.668;2023-07-09T01:57:34;5.80;;;5.20;;
12171;SDS011;6149;52.418;13.668;2023-07-09T02:00:01;7.10;;;5.73;;
12171;SDS011;6149;52.418;13.668;2023-07-09T02:02:31;5.47;;;4.97;;
12171;SDS011;6149;52.418;13.668;2023-07-09T02:04:58;7.20;;;5.60;;
12171;SDS011;6149;52.418;13.668;2023-07-09T02:07:26;5.47;;;4.97;;
12171;SDS011;6149;52.418;13.668;2023-07-09T02:09:52;6.93;;;5.80;;
12171;SDS011;6149;52.418;13.668;2023-07-09T02:12:19;7.00;;;5.57;;
12171;SDS011;6149;52.418;13.668;2023-07-09T02:14:47;6.20;;;5.47;;
12171;SDS011;6149;52.418;13.668;2023-07-09T02:17:14;7.93;;;5.43;;
12171;SDS011;6149;52.418;13.668;2023-07-09T02:19:42;6.73;;;5.50;;
12171;SDS011;6149;52.418;13.668;2023-07-09T02:22:09;5.53;;;4.93;;
12171;SDS011;6149;52.418;13.668;2023-07-09T02:24:37;8.07;;;5.60;;
12171;SDS011;6149;52.418;13.668;2023-07-09T02:27:04;6.53;;;5.50;;
12171;SDS011;6149;52.418;13.668;2023-07-09T02:29:34;6.80;;;5.80;;
12171;SDS011;6149;52.418;13.668;2023-07-09T02:32:02;7.00;;;5.33;;
12171;SDS011;6149;52.418;13.668;2023-07-09T02:34:30;7.90;;;5.30;;
12171;SDS011;6149;52.418;13.668;2023-07-09T02:36:57;8.20;;;5.53;;
12171;SDS011;6149;52.418;13.668;2023-07-09T02:39:25;6.70;;;6.00;;
12171;SDS011;6149;52.418;13.668;2023-07-09T02:41:52;6.50;;;5.03;;
12171;SDS011;6149;52.418;13.668;2023-07-09T02:44:19;6.77;;;5.93;;
12171;SDS011;6149;52.418;13.668;2023-07-09T02:46:46;6.20;;;5.60;;
12171;SDS011;6149;52.418;13.668;2023-07-09T02:49:14;6.47;;;5.83;;
12171;SDS011;6149;52.418;13.668;2023-07-09T02:51:41;6.47;;;5.43;;
12171;SDS011;6149;52.418;13.668;2023-07-09T02:54:08;6.43;;;5.60;;
12171;SDS011;6149;52.418;13.668;2023-07-09T02:56:35;5.77;;;5.10;;
12171;SDS011;6149;52.418;13.668;2023-07-09T02:59:02;7.57;;;5.87;;
12171;SDS011;6149;52.418;13.668;2023-07-09T03:01:28;7.83;;;5.57;;
12171;SDS011;6149;52.418;13.668;2023-07-09T03:03:57;11.17;;;7.20;;
12171;SDS011;6149;52.418;13.668;2023-07-09T03:06:26;9.73;;;6.10;;
12171;SDS011;6149;52.418;13.668;2023-07-09T03:08:53;8.57;;;6.30;;
12171;SDS011;6149;52.418;13.668;2023-07-09T03:11:20;7.17;;;6.47;;
12171;SDS011;6149;52.418;13.668;2023-07-09T03:13:47;9.03;;;6.23;;
12171;SDS011;6149;52.418;13.668;2023-07-09T03:16:15;7.30;;;6.60;;
12171;SDS011;6149;52.418;13.668;2023-07-09T03:18:44;10.13;;;5.33;;
12171;SDS011;6149;52.418;13.668;2023-07-09T03:21:10;8.83;;;6.60;;
12171;SDS011;6149;52.418;13.668;2023-07-09T03:23:38;8.27;;;6.37;;
12171;SDS011;6149;52.418;13.668;2023-07-09T03:26:05;7.33;;;6.30;;
12171;SDS011;6149;52.418;13.668;2023-07-09T03:28:32;9.27;;;6.87;;
12171;SDS011;6149;52.418;13.668;2023-07-09T03:30:59;7.13;;;6.03;;
12171;SDS011;6149;52.418;13.668;2023-07-09T03:33:26;10.43;;;6.47;;
12171;SDS011;6149;52.418;13.668;2023-07-09T03:35:53;10.83;;;7.50;;
12171;SDS011;6149;52.418;13.668;2023-07-09T03:38:20;10.77;;;6.70;;
12171;SDS011;6149;52.418;13.668;2023-07-09T03:40:50;11.10;;;7.50;;
12171;SDS011;6149;52.418;13.668;2023-07-09T03:43:18;7.47;;;6.40;;
12171;SDS011;6149;52.418;13.668;2023-07-09T03:45:45;10.23;;;7.00;;
12171;SDS011;6149;52.418;13.668;2023-07-09T03:48:13;11.07;;;7.33;;
12171;SDS011;6149;52.418;13.668;2023-07-09T03:50:43;7.17;;;6.47;;
12171;SDS011;6149;52.418;13.668;2023-07-09T03:53:12;11.87;;;7.53;;
12171;SDS011;6149;52.418;13.668;2023-07-09T03:55:39;8.07;;;7.20;;
12171;SDS011;6149;52.418;13.668;2023-07-09T03:58:08;7.60;;;6.93;;
12171;SDS011;6149;52.418;13.668;2023-07-09T04:00:35;7.43;;;6.60;;
12171;SDS011;6149;52.418;13.668;2023-07-09T04:03:01;8.00;;;6.33;;
12171;SDS011;6149;52.418;13.668;2023-07-09T04:05:28;6.90;;;6.20;;
12171;SDS011;6149;52.418;13.668;2023-07-09T04:07:55;7.10;;;6.40;;
12171;SDS011;6149;52.418;13.668;2023-07-09T04:10:21;7.13;;;6.43;;
12171;SDS011;6149;52.418;13.668;2023-07-09T04:12:48;7.57;;;6.90;;
12171;SDS011;6149;52.418;13.668;2023-07-09T04:15:17;7.63;;;6.90;;
12171;SDS011;6149;52.418;13.668;2023-07-09T04:17:44;6.73;;;6.13;;
12171;SDS011;6149;52.418;13.668;2023-07-09T04:20:11;7.10;;;6.40;;
12171;SDS011;6149;52.418;13.668;2023-07-09T04:22:37;8.30;;;6.93;;
12171;SDS011;6149;52.418;13.668;2023-07-09T04:25:05;7.60;;;6.90;;
12171;SDS011;6149;52.418;13.668;2023-07-09T04:27:35;8.70;;;7.20;;
12171;SDS011;6149;52.418;13.668;2023-07-09T04:30:02;8.33;;;7.50;;
12171;SDS011;6149;52.418;13.668;2023-07-09T04:32:32;8.43;;;7.33;;
12171;SDS011;6149;52.418;13.668;2023-07-09T04:34:58;8.37;;;7.47;;
12171;SDS011;6149;52.418;13.668;2023-07-09T04:37:25;7.30;;;6.60;;
12171;SDS011;6149;52.418;13.668;2023-07-09T04:39:52;7.30;;;6.67;;
12171;SDS011;6149;52.418;13.668;2023-07-09T04:42:18;8.07;;;7.37;;
12171;SDS011;6149;52.418;13.668;2023-07-09T04:44:47;8.60;;;7.03;;
12171;SDS011;6149;52.418;13.668;2023-07-09T04:47:14;7.77;;;7.07;;
12171;SDS011;6149;52.418;13.668;2023-07-09T04:49:42;7.13;;;6.53;;
12171;SDS011;6149;52.418;13.668;2023-07-09T04:52:09;8.27;;;6.83;;
12171;SDS011;6149;52.418;13.668;2023-07-09T04:54:37;7.17;;;6.50;;
12171;SDS011;6149;52.418;13.668;2023-07-09T04:57:08;7.57;;;6.67;;
12171;SDS011;6149;52.418;13.668;2023-07-09T04:59:35;7.43;;;6.73;;
12171;SDS011;6149;52.418;13.668;2023-07-09T05:02:01;6.57;;;5.97;;
12171;SDS011;6149;52.418;13.668;2023-07-09T05:04:30;6.80;;;6.20;;
12171;SDS011;6149;52.418;13.668;2023-07-09T05:06:58;6.40;;;5.80;;
12171;SDS011;6149;52.418;13.668;2023-07-09T05:09:25;9.17;;;6.93;;
12171;SDS011;6149;52.418;13.668;2023-07-09T05:11:52;7.70;;;6.37;;
12171;SDS011;6149;52.418;13.668;2023-07-09T05:14:18;6.87;;;5.90;;
12171;SDS011;6149;52.418;13.668;2023-07-09T05:16:45;6.57;;;5.73;;
12171;SDS011;6149;52.418;13.668;2023-07-09T05:19:12;5.90;;;5.30;;
12171;SDS011;6149;52.418;13.668;2023-07-09T05:21:38;5.83;;;5.33;;
12171;SDS011;6149;52.418;13.668;2023-07-09T05:24:06;6.80;;;6.10;;
12171;SDS011;6149;52.418;13.668;2023-07-09T05:26:34;6.57;;;5.67;;
12171;SDS011;6149;52.418;13.668;2023-07-09T05:29:01;8.70;;;5.57;;
12171;SDS011;6149;52.418;13.668;2023-07-09T05:31:29;6.00;;;5.50;;
12171;SDS011;6149;52.418;13.668;2023-07-09T05:33:56;6.57;;;5.57;;
12171;SDS011;6149;52.418;13.668;2023-07-09T05:36:22;5.67;;;5.13;;
12171;SDS011;6149;52.418;13.668;2023-07-09T05:38:49;5.60;;;5.10;;
12171;SDS011;6149;52.418;13.668;2023-07-09T05:41:17;5.87;;;5.27;;
12171;SDS011;6149;52.418;13.668;2023-07-09T05:43:44;6.03;;;4.67;;
12171;SDS011;6149;52.418;13.668;2023-07-09T05:46:11;5.47;;;4.60;;
12171;SDS011;6149;52.418;13.668;2023-07-09T05:48:39;5.57;;;5.07;;
12171;SDS011;6149;52.418;13.668;2023-07-09T05:51:05;5.83;;;4.60;;
12171;SDS011;6149;52.418;13.668;2023-07-09T05:53:32;5.43;;;4.93;;
12171;SDS011;6149;52.418;13.668;2023-07-09T05:55:59;5.43;;;4.73;;
12171;SDS011;6149;52.418;13.668;2023-07-09T05:58:27;5.17;;;4.47;;
12171;SDS011;6149;52.418;13.668;2023-07-09T06:00:54;6.07;;;4.50;;
12171;SDS011;6149;52.418;13.668;2023-07-09T06:03:22;4.87;;;4.40;;
12171;SDS011;6149;52.418;13.668;2023-07-09T06:05:51;5.90;;;4.20;;
12171;SDS011;6149;52.418;13.668;2023-07-09T06:08:18;4.83;;;4.27;;
12171;SDS011;6149;52.418;13.668;2023-07-09T06:10:52;4.80;;;4.40;;
12171;SDS011;6149;52.418;13.668;2023-07-09T06:13:20;6.93;;;4.30;;
12171;SDS011;6149;52.418;13.668;2023-07-09T06:15:49;5.27;;;4.37;;
12171;SDS011;6149;52.418;13.668;2023-07-09T06:18:17;4.40;;;4.00;;
12171;SDS011;6149;52.418;13.668;2023-07-09T06:20:48;5.77;;;4.70;;
12171;SDS011;6149;52.418;13.668;2023-07-09T06:23:16;4.80;;;4.30;;
12171;SDS011;6149;52.418;13.668;2023-07-09T06:25:42;6.03;;;4.97;;
12171;SDS011;6149;52.418;13.668;2023-07-09T06:28:14;6.63;;;4.33;;
12171;SDS011;6149;52.418;13.668;2023-07-09T06:30:45;4.80;;;4.40;;
12171;SDS011;6149;52.418;13.668;2023-07-09T06:33:16;4.93;;;4.53;;
12171;SDS011;6149;52.418;13.668;2023-07-09T06:35:47;4.93;;;4.30;;
12171;SDS011;6149;52.418;13.668;2023-07-09T06:38:17;4.77;;;4.37;;
12171;SDS011;6149;52.418;13.668;2023-07-09T06:40:45;5.17;;;4.67;;
12171;SDS011;6149;52.418;13.668;2023-07-09T06:43:13;4.83;;;4.43;;
12171;SDS011;6149;52.418;13.668;2023-07-09T06:45:47;5.43;;;4.77;;
12171;SDS011;6149;52.418;13.668;2023-07-09T06:48:17;5.77;;;4.20;;
12171;SDS011;6149;52.418;13.668;2023-07-09T06:50:44;4.83;;;4.33;;
12171;SDS011;6149;52.418;13.668;2023-07-09T06:53:10;5.30;;;4.80;;
12171;SDS011;6149;52.418;13.668;2023-07-09T06:55:37;6.03;;;4.67;;
12171;SDS011;6149;52.418;13.668;2023-07-09T06:58:03;5.73;;;4.50;;
12171;SDS011;6149;52.418;13.668;2023-07-09T07:00:30;6.27;;;4.50;;
12171;SDS011;6149;52.418;13.668;2023-07-09T07:02:57;5.70;;;4.97;;
12171;SDS011;6149;52.418;13.668;2023-07-09T07:05:24;5.80;;;4.73;;
12171;SDS011;6149;52.418;13.668;2023-07-09T07:07:51;6.27;;;4.87;;
12171;SDS011;6149;52.418;13.668;2023-07-09T07:10:19;5.53;;;5.03;;
12171;SDS011;6149;52.418;13.668;2023-07-09T07:12:46;5.20;;;4.77;;
12171;SDS011;6149;52.418;13.668;2023-07-09T07:15:15;6.57;;;4.80;;
12171;SDS011;6149;52.418;13.668;2023-07-09T07:17:43;5.20;;;4.67;;
12171;SDS011;6149;52.418;13.668;2023-07-09T07:20:11;6.53;;;4.63;;
12171;SDS011;6149;52.418;13.668;2023-07-09T07:22:40;6.07;;;4.80;;
12171;SDS011;6149;52.418;13.668;2023-07-09T07:25:07;5.03;;;4.63;;
12171;SDS011;6149;52.418;13.668;2023-07-09T07:27:35;5.23;;;4.77;;
12171;SDS011;6149;52.418;13.668;2023-07-09T07:30:03;5.37;;;4.63;;
12171;SDS011;6149;52.418;13.668;2023-07-09T07:32:34;5.50;;;5.00;;
12171;SDS011;6149;52.418;13.668;2023-07-09T07:35:02;8.97;;;5.20;;
12171;SDS011;6149;52.418;13.668;2023-07-09T07:37:29;5.20;;;4.70;;
12171;SDS011;6149;52.418;13.668;2023-07-09T07:39:57;5.53;;;4.90;;
12171;SDS011;6149;52.418;13.668;2023-07-09T07:42:23;5.03;;;4.53;;
12171;SDS011;6149;52.418;13.668;2023-07-09T07:44:50;5.70;;;4.83;;
12171;SDS011;6149;52.418;13.668;2023-07-09T07:47:17;5.40;;;4.90;;
12171;SDS011;6149;52.418;13.668;2023-07-09T07:49:44;5.67;;;5.17;;
12171;SDS011;6149;52.418;13.668;2023-07-09T07:52:10;6.53;;;5.10;;
12171;SDS011;6149;52.418;13.668;2023-07-09T07:54:37;6.20;;;5.13;;
12171;SDS011;6149;52.418;13.668;2023-07-09T07:57:05;7.37;;;5.10;;
12171;SDS011;6149;52.418;13.668;2023-07-09T07:59:34;5.53;;;4.80;;
12171;SDS011;6149;52.418;13.668;2023-07-09T08:02:01;6.53;;;5.30;;
12171;SDS011;6149;52.418;13.668;2023-07-09T08:04:27;6.97;;;5.60;;
12171;SDS011;6149;52.418;13.668;2023-07-09T08:06:54;6.03;;;5.37;;
12171;SDS011;6149;52.418;13.668;2023-07-09T08:09:21;5.83;;;5.13;;
12171;SDS011;6149;52.418;13.668;2023-07-09T08:11:48;7.47;;;5.07;;
12171;SDS011;6149;52.418;13.668;2023-07-09T08:14:15;6.03;;;5.13;;
12171;SDS011;6149;52.418;13.668;2023-07-09T08:16:43;5.77;;;5.10;;
12171;SDS011;6149;52.418;13.668;2023-07-09T08:19:10;7.00;;;6.00;;
12171;SDS011;6149;52.418;13.668;2023-07-09T08:21:36;6.20;;;5.60;;
12171;SDS011;6149;52.418;13.668;2023-07-09T08:24:03;6.50;;;5.90;;
12171;SDS011;6149;52.418;13.668;2023-07-09T08:26:31;6.07;;;5.57;;
12171;SDS011;6149;52.418;13.668;2023-07-09T08:28:57;6.00;;;5.50;;
12171;SDS011;6149;52.418;13.668;2023-07-09T08:31:25;5.33;;;4.83;;
12171;SDS011;6149;52.418;13.668;2023-07-09T08:33:52;5.93;;;5.30;;
12171;SDS011;6149;52.418;13.668;2023-07-09T08:36:18;5.27;;;4.77;;
12171;SDS011;6149;52.418;13.668;2023-07-09T08:38:45;6.27;;;4.83;;
12171;SDS011;6149;52.418;13.668;2023-07-09T08:41:15;7.63;;;5.53;;
12171;SDS011;6149;52.418;13.668;2023-07-09T08:47:06;5.47;;;4.97;;
12171;SDS011;6149;52.418;13.668;2023-07-09T08:49:40;5.60;;;5.20;;
12171;SDS011;6149;52.418;13.668;2023-07-09T08:52:24;5.63;;;5.03;;
12171;SDS011;6149;52.418;13.668;2023-07-09T08:54:56;5.23;;;4.83;;
12171;SDS011;6149;52.418;13.668;2023-07-09T08:57:27;4.70;;;4.30;;
12171;SDS011;6149;52.418;13.668;2023-07-09T08:59:59;5.87;;;4.77;;
12171;SDS011;6149;52.418;13.668;2023-07-09T09:02:33;5.57;;;4.70;;
12171;SDS011;6149;52.418;13.668;2023-07-09T09:05:05;5.17;;;4.77;;
12171;SDS011;6149;52.418;13.668;2023-07-09T09:07:37;5.17;;;4.70;;
12171;SDS011;6149;52.418;13.668;2023-07-09T09:10:10;5.83;;;4.93;;
12171;SDS011;6149;52.418;13.668;2023-07-09T09:12:44;5.03;;;4.63;;
12171;SDS011;6149;52.418;13.668;2023-07-09T09:15:23;5.27;;;4.77;;
12171;SDS011;6149;52.418;13.668;2023-07-09T09:17:53;4.63;;;4.33;;
12171;SDS011;6149;52.418;13.668;2023-07-09T09:20:27;4.60;;;4.17;;
12171;SDS011;6149;52.418;13.668;2023-07-09T09:22:57;5.03;;;4.53;;
12171;SDS011;6149;52.418;13.668;2023-07-09T09:25:37;4.93;;;4.50;;
12171;SDS011;6149;52.418;13.668;2023-07-09T09:28:07;7.50;;;4.87;;
12171;SDS011;6149;52.418;13.668;2023-07-09T09:30:34;5.57;;;5.00;;
12171;SDS011;6149;52.418;13.668;2023-07-09T09:33:02;5.60;;;5.10;;
12171;SDS011;6149;52.418;13.668;2023-07-09T09:35:34;5.23;;;4.73;;
12171;SDS011;6149;52.418;13.668;2023-07-09T09:38:09;5.90;;;4.77;;
12171;SDS011;6149;52.418;13.668;2023-07-09T09:40:37;5.40;;;4.90;;
12171;SDS011;6149;52.418;13.668;2023-07-09T09:43:09;5.23;;;4.73;;
12171;SDS011;6149;52.418;13.668;2023-07-09T09:45:40;4.50;;;4.10;;
12171;SDS011;6149;52.418;13.668;2023-07-09T09:48:13;5.37;;;4.87;;
12171;SDS011;6149;52.418;13.668;2023-07-09T09:50:44;5.80;;;4.80;;
12171;SDS011;6149;52.418;13.668;2023-07-09T09:53:14;4.60;;;4.20;;
12171;SDS011;6149;52.418;13.668;2023-07-09T09:55:48;4.90;;;4.50;;
12171;SDS011;6149;52.418;13.668;2023-07-09T09:58:18;4.90;;;4.50;;
12171;SDS011;6149;52.418;13.668;2023-07-09T10:00:49;5.50;;;4.50;;
12171;SDS011;6149;52.418;13.668;2023-07-09T10:03:20;4.93;;;4.50;;
12171;SDS011;6149;52.418;13.668;2023-07-09T10:05:48;5.53;;;4.27;;
12171;SDS011;6149;52.418;13.668;2023-07-09T10:08:24;4.93;;;4.43;;
12171;SDS011;6149;52.418;13.668;2023-07-09T10:11:06;5.33;;;4.90;;
12171;SDS011;6149;52.418;13.668;2023-07-09T10:13:41;5.13;;;4.47;;
12171;SDS011;6149;52.418;13.668;2023-07-09T10:16:14;5.00;;;3.97;;
12171;SDS011;6149;52.418;13.668;2023-07-09T10:18:52;5.07;;;4.20;;
12171;SDS011;6149;52.418;13.668;2023-07-09T10:21:30;4.87;;;4.37;;
12171;SDS011;6149;52.418;13.668;2023-07-09T10:24:05;4.93;;;4.57;;
12171;SDS011;6149;52.418;13.668;2023-07-09T10:26:48;5.50;;;4.17;;
12171;SDS011;6149;52.418;13.668;2023-07-09T10:29:26;4.50;;;4.10;;
12171;SDS011;6149;52.418;13.668;2023-07-09T10:32:09;4.80;;;4.30;;
12171;SDS011;6149;52.418;13.668;2023-07-09T10:34:51;5.63;;;5.10;;
12171;SDS011;6149;52.418;13.668;2023-07-09T10:37:35;4.40;;;4.10;;
12171;SDS011;6149;52.418;13.668;2023-07-09T10:40:25;4.80;;;4.30;;
12171;SDS011;6149;52.418;13.668;2023-07-09T10:43:00;4.70;;;4.30;;
12171;SDS011;6149;52.418;13.668;2023-07-09T10:45:30;4.97;;;4.47;;
12171;SDS011;6149;52.418;13.668;2023-07-09T10:48:04;6.03;;;4.80;;
12171;SDS011;6149;52.418;13.668;2023-07-09T10:50:41;5.03;;;4.37;;
12171;SDS011;6149;52.418;13.668;2023-07-09T10:53:12;5.07;;;4.57;;
12171;SDS011;6149;52.418;13.668;2023-07-09T10:55:56;5.20;;;4.73;;
12171;SDS011;6149;52.418;13.668;2023-07-09T10:58:32;4.87;;;4.37;;
12171;SDS011;6149;52.418;13.668;2023-07-09T11:01:05;5.47;;;4.60;;
12171;SDS011;6149;52.418;13.668;2023-07-09T11:03:37;6.70;;;4.47;;
12171;SDS011;6149;52.418;13.668;2023-07-09T11:06:16;4.70;;;4.30;;
12171;SDS011;6149;52.418;13.668;2023-07-09T11:08:47;4.50;;;4.10;;
12171;SDS011;6149;52.418;13.668;2023-07-09T11:11:22;5.33;;;4.37;;
12171;SDS011;6149;52.418;13.668;2023-07-09T11:13:56;6.70;;;4.80;;
12171;SDS011;6149;52.418;13.668;2023-07-09T11:16:28;4.87;;;4.30;;
12171;SDS011;6149;52.418;13.668;2023-07-09T11:19:05;5.40;;;4.40;;
12171;SDS011;6149;52.418;13.668;2023-07-09T11:21:44;5.10;;;4.60;;
12171;SDS011;6149;52.418;13.668;2023-07-09T11:24:29;5.10;;;4.60;;
12171;SDS011;6149;52.418;13.668;2023-07-09T11:27:00;6.00;;;4.90;;
12171;SDS011;6149;52.418;13.668;2023-07-09T11:29:27;5.47;;;4.37;;
12171;SDS011;6149;52.418;13.668;2023-07-09T11:31:54;5.43;;;4.73;;
12171;SDS011;6149;52.418;13.668;2023-07-09T11:34:26;6.00;;;4.77;;
12171;SDS011;6149;52.418;13.668;2023-07-09T11:36:58;5.70;;;4.40;;
12171;SDS011;6149;52.418;13.668;2023-07-09T11:39:27;5.17;;;4.63;;
12171;SDS011;6149;52.418;13.668;2023-07-09T11:41:57;4.97;;;4.57;;
12171;SDS011;6149;52.418;13.668;2023-07-09T11:44:25;5.57;;;4.77;;
12171;SDS011;6149;52.418;13.668;2023-07-09T11:46:57;5.27;;;4.77;;
12171;SDS011;6149;52.418;13.668;2023-07-09T11:49:43;5.23;;;4.30;;
12171;SDS011;6149;52.418;13.668;2023-07-09T11:52:20;4.53;;;4.13;;
12171;SDS011;6149;52.418;13.668;2023-07-09T11:55:16;6.27;;;5.07;;
12171;SDS011;6149;52.418;13.668;2023-07-09T11:57:52;7.77;;;4.67;;
12171;SDS011;6149;52.418;13.668;2023-07-09T12:00:20;5.90;;;4.60;;
12171;SDS011;6149;52.418;13.668;2023-07-09T12:02:46;5.50;;;4.97;;
12171;SDS011;6149;52.418;13.668;2023-07-09T12:05:13;5.23;;;4.73;;
12171;SDS011;6149;52.418;13.668;2023-07-09T12:07:49;5.90;;;4.43;;
12171;SDS011;6149;52.418;13.668;2023-07-09T12:10:18;4.77;;;4.37;;
12171;SDS011;6149;52.418;13.668;2023-07-09T12:12:48;4.67;;;4.27;;
12171;SDS011;6149;52.418;13.668;2023-07-09T12:15:21;5.63;;;5.13;;
12171;SDS011;6149;52.418;13.668;2023-07-09T12:17:55;5.40;;;4.90;;
12171;SDS011;6149;52.418;13.668;2023-07-09T12:20:23;5.17;;;4.67;;
12171;SDS011;6149;52.418;13.668;2023-07-09T12:22:52;5.13;;;4.63;;
12171;SDS011;6149;52.418;13.668;2023-07-09T12:25:20;5.87;;;5.20;;
12171;SDS011;6149;52.418;13.668;2023-07-09T12:27:51;5.83;;;5.00;;
12171;SDS011;6149;52.418;13.668;2023-07-09T12:30:18;6.80;;;5.07;;
12171;SDS011;6149;52.418;13.668;2023-07-09T12:32:46;6.40;;;5.13;;
12171;SDS011;6149;52.418;13.668;2023-07-09T12:35:17;6.70;;;5.20;;
12171;SDS011;6149;52.418;13.668;2023-07-09T12:37:46;4.73;;;4.33;;
12171;SDS011;6149;52.418;13.668;2023-07-09T12:40:16;5.10;;;4.70;;
12171;SDS011;6149;52.418;13.668;2023-07-09T12:42:47;5.33;;;4.63;;
12171;SDS011;6149;52.418;13.668;2023-07-09T12:45:15;5.37;;;4.87;;
12171;SDS011;6149;52.418;13.668;2023-07-09T12:47:45;6.00;;;4.43;;
12171;SDS011;6149;52.418;13.668;2023-07-09T12:50:22;6.57;;;4.67;;
12171;SDS011;6149;52.418;13.668;2023-07-09T12:52:56;5.00;;;4.60;;
12171;SDS011;6149;52.418;13.668;2023-07-09T12:55:28;5.73;;;5.13;;
12171;SDS011;6149;52.418;13.668;2023-07-09T12:58:07;7.40;;;4.90;;
12171;SDS011;6149;52.418;13.668;2023-07-09T13:00:37;5.57;;;5.07;;
12171;SDS011;6149;52.418;13.668;2023-07-09T13:03:03;6.33;;;4.70;;
12171;SDS011;6149;52.418;13.668;2023-07-09T13:05:50;4.97;;;4.47;;
12171;SDS011;6149;52.418;13.668;2023-07-09T13:08:19;6.77;;;4.60;;
12171;SDS011;6149;52.418;13.668;2023-07-09T13:10:47;5.37;;;4.83;;
12171;SDS011;6149;52.418;13.668;2023-07-09T13:13:16;6.13;;;4.73;;
12171;SDS011;6149;52.418;13.668;2023-07-09T13:15:47;5.80;;;5.30;;
12171;SDS011;6149;52.418;13.668;2023-07-09T13:18:16;5.57;;;4.93;;
12171;SDS011;6149;52.418;13.668;2023-07-09T13:20:44;7.70;;;5.33;;
12171;SDS011;6149;52.418;13.668;2023-07-09T13:23:13;6.30;;;4.90;;
12171;SDS011;6149;52.418;13.668;2023-07-09T13:25:42;5.50;;;4.90;;
12171;SDS011;6149;52.418;13.668;2023-07-09T13:28:20;7.70;;;5.10;;
12171;SDS011;6149;52.418;13.668;2023-07-09T13:30:51;5.10;;;4.70;;
12171;SDS011;6149;52.418;13.668;2023-07-09T13:33:20;4.87;;;4.47;;
12171;SDS011;6149;52.418;13.668;2023-07-09T13:35:47;5.73;;;5.23;;
12171;SDS011;6149;52.418;13.668;2023-07-09T13:38:14;5.73;;;5.13;;
12171;SDS011;6149;52.418;13.668;2023-07-09T13:40:42;6.00;;;5.40;;
12171;SDS011;6149;52.418;13.668;2023-07-09T13:43:15;5.37;;;4.87;;
12171;SDS011;6149;52.418;13.668;2023-07-09T13:46:00;5.10;;;4.70;;
12171;SDS011;6149;52.418;13.668;2023-07-09T13:48:30;6.47;;;5.20;;
12171;SDS011;6149;52.418;13.668;2023-07-09T13:50:58;5.33;;;4.83;;
12171;SDS011;6149;52.418;13.668;2023-07-09T13:53:27;5.17;;;4.67;;
12171;SDS011;6149;52.418;13.668;2023-07-09T13:55:56;5.67;;;5.17;;
12171;SDS011;6149;52.418;13.668;2023-07-09T13:58:25;6.30;;;5.53;;
12171;SDS011;6149;52.418;13.668;2023-07-09T14:00:56;5.67;;;5.27;;
12171;SDS011;6149;52.418;13.668;2023-07-09T14:03:30;6.77;;;5.40;;
12171;SDS011;6149;52.418;13.668;2023-07-09T14:05:58;5.70;;;5.10;;
12171;SDS011;6149;52.418;13.668;2023-07-09T14:08:25;6.33;;;5.50;;
12171;SDS011;6149;52.418;13.668;2023-07-09T14:10:52;8.03;;;5.87;;
12171;SDS011;6149;52.418;13.668;2023-07-09T14:13:21;5.33;;;4.87;;
12171;SDS011;6149;52.418;13.668;2023-07-09T14:15:49;5.57;;;5.07;;
12171;SDS011;6149;52.418;13.668;2023-07-09T14:18:18;5.53;;;5.03;;
12171;SDS011;6149;52.418;13.668;2023-07-09T14:20:47;5.00;;;4.60;;
12171;SDS011;6149;52.418;13.668;2023-07-09T14:23:16;7.00;;;5.37;;
12171;SDS011;6149;52.418;13.668;2023-07-09T14:25:43;5.80;;;5.30;;
12171;SDS011;6149;52.418;13.668;2023-07-09T14:28:12;7.27;;;5.43;;
12171;SDS011;6149;52.418;13.668;2023-07-09T14:30:40;6.13;;;5.23;;
12171;SDS011;6149;52.418;13.668;2023-07-09T14:33:09;5.53;;;5.00;;
12171;SDS011;6149;52.418;13.668;2023-07-09T14:35:41;5.80;;;5.30;;
12171;SDS011;6149;52.418;13.668;2023-07-09T14:38:11;6.00;;;5.23;;
12171;SDS011;6149;52.418;13.668;2023-07-09T14:40:43;5.43;;;4.93;;
12171;SDS011;6149;52.418;13.668;2023-07-09T14:43:11;5.47;;;4.97;;
12171;SDS011;6149;52.418;13.668;2023-07-09T14:45:37;5.70;;;5.20;;
12171;SDS011;6149;52.418;13.668;2023-07-09T14:48:08;5.73;;;5.23;;
12171;SDS011;6149;52.418;13.668;2023-07-09T14:50:37;5.97;;;5.47;;
12171;SDS011;6149;52.418;13.668;2023-07-09T14:53:08;6.17;;;5.57;;
12171;SDS011;6149;52.418;13.668;2023-07-09T14:55:39;7.67;;;5.40;;
12171;SDS011;6149;52.418;13.668;2023-07-09T14:58:08;5.90;;;5.33;;
12171;SDS011;6149;52.418;13.668;2023-07-09T15:00:40;6.00;;;5.40;;
12171;SDS011;6149;52.418;13.668;2023-07-09T15:03:09;6.13;;;5.07;;
12171;SDS011;6149;52.418;13.668;2023-07-09T15:05:37;6.50;;;5.47;;
12171;SDS011;6149;52.418;13.668;2023-07-09T15:08:11;7.30;;;5.40;;